Time;durP1;ratioP1;P1;durP2;ratioP2;P2;SDS_P1;SDS_P2;PMS_P1;PMS_P2;Temp;Humidity;BMP_temperature;BMP_pressure;BME280_temperature;BME280_humidity;BME280_pressure;Samples;Min_cycle;Max_cycle;Signal;HPM_P1;HPM_P2
2022/09/09 00:01:30;;;;;;;5.57;0.93;;;15.00;99.90;;;14.32;100.00;97643.22;4997479;28;20058;-68
2022/09/09 00:04:23;;;;;;;4.38;0.85;;;14.90;99.90;;;14.38;100.00;97642.84;4998546;28;20499;-69
2022/09/09 00:07:13;;;;;;;5.72;0.75;;;14.90;99.90;;;14.27;100.00;97650.44;4996222;28;20045;-68
2022/09/09 00:10:16;;;;;;;7.40;1.00;;;14.90;99.90;;;14.23;100.00;97652.41;5001899;28;20085;-68
2022/09/09 00:13:16;;;;;;;5.93;0.90;;;14.80;99.90;;;14.22;100.00;97644.66;5002042;28;20058;-68
2022/09/09 00:15:53;;;;;;;7.32;0.90;;;14.80;99.90;;;14.17;100.00;97642.28;5034780;28;20060;-68
2022/09/09 00:18:48;;;;;;;6.20;1.00;;;14.80;99.90;;;14.18;100.00;97643.13;5004565;28;20054;-69
2022/09/09 00:21:17;;;;;;;5.88;0.93;;;14.80;99.90;;;14.12;100.00;97640.88;5002435;28;20050;-68
2022/09/09 00:23:54;;;;;;;6.38;1.05;;;14.70;99.90;;;14.17;100.00;97642.28;4985411;28;20077;-68
2022/09/09 00:26:38;;;;;;;6.28;0.93;;;14.70;99.90;;;14.07;100.00;97643.75;5001655;28;20395;-68
2022/09/09 00:29:19;;;;;;;6.22;0.90;;;14.70;99.90;;;14.07;100.00;97655.94;5034801;28;20046;-68
2022/09/09 00:31:47;;;;;;;5.18;0.80;;;14.70;99.90;;;14.12;100.00;97646.94;5002693;28;20058;-69
2022/09/09 00:34:23;;;;;;;7.78;1.10;;;14.70;99.90;;;14.14;100.00;97650.31;5002074;28;20053;-68
2022/09/09 00:36:53;;;;;;;3.67;0.73;;;14.60;99.90;;;14.13;100.00;97655.59;5001753;28;20061;-69
2022/09/09 00:39:42;;;;;;;6.20;0.85;;;14.70;99.90;;;14.10;100.00;97656.63;5018216;28;20534;-69
2022/09/09 00:42:44;;;;;;;3.70;0.75;;;14.70;99.90;;;14.16;100.00;97663.25;5001452;28;20648;-69
2022/09/09 00:45:40;;;;;;;2.67;0.70;;;14.70;99.90;;;14.10;100.00;97658.38;5000255;28;20293;-68
2022/09/09 00:48:11;;;;;;;5.13;1.17;;;14.80;99.90;;;14.09;100.00;97661.91;5032214;28;20120;-68
2022/09/09 00:50:56;;;;;;;4.35;1.00;;;14.70;99.90;;;14.12;100.00;97657.38;5015343;28;20081;-68
2022/09/09 00:54:15;;;;;;;9.35;0.80;;;14.70;99.90;;;14.12;100.00;97649.53;5028309;28;20050;-68
2022/09/09 00:56:58;;;;;;;7.28;0.77;;;14.80;99.90;;;14.13;100.00;97653.81;5003037;28;20062;-69
2022/09/09 00:59:45;;;;;;;4.72;1.00;;;14.80;99.90;;;14.14;100.00;97657.28;5034013;28;20144;-68
2022/09/09 01:02:38;;;;;;;3.83;0.75;;;14.80;99.90;;;14.13;100.00;97648.59;5035464;28;20069;-68
2022/09/09 01:05:13;;;;;;;6.13;0.70;;;14.80;99.90;;;14.20;100.00;97647.31;5035138;28;20491;-68
2022/09/09 01:07:47;;;;;;;4.55;0.60;;;14.80;99.90;;;14.23;100.00;97649.78;5034299;28;20054;-68
2022/09/09 01:10:50;;;;;;;7.95;0.80;;;14.80;99.90;;;14.22;100.00;97649.88;5002784;28;20527;-68
2022/09/09 01:13:26;;;;;;;4.68;0.70;;;14.80;99.90;;;14.19;100.00;97648.28;5035438;28;20073;-68
2022/09/09 01:15:54;;;;;;;5.15;0.60;;;14.90;99.90;;;14.29;100.00;97637.31;5036202;28;20053;-68
2022/09/09 01:18:34;;;;;;;8.80;0.93;;;14.90;99.90;;;14.34;100.00;97638.72;5001084;28;21455;-68
2022/09/09 01:21:33;;;;;;;3.72;0.70;;;14.90;99.90;;;14.31;100.00;97627.63;5035522;28;20138;-68
2022/09/09 01:24:00;;;;;;;4.32;0.70;;;14.90;99.90;;;14.28;100.00;97615.59;5001492;28;20495;-68
2022/09/09 01:26:48;;;;;;;4.05;0.90;;;14.90;99.90;;;14.26;100.00;97607.00;5001866;28;20454;-68
2022/09/09 01:29:17;;;;;;;3.40;0.68;;;14.90;99.90;;;14.27;100.00;97594.78;5034756;28;20046;-68
2022/09/09 01:32:38;;;;;;;7.35;0.82;;;14.90;99.90;;;14.28;100.00;97599.91;5005201;28;20064;-68
2022/09/09 01:35:14;;;;;;;2.90;0.60;;;14.90;99.90;;;14.29;100.00;97591.16;5002980;28;20046;-68
2022/09/09 01:37:41;;;;;;;6.40;0.88;;;14.90;99.90;;;14.25;100.00;97594.03;5027023;28;20061;-68
2022/09/09 01:40:09;;;;;;;3.40;0.68;;;14.80;99.90;;;14.29;100.00;97588.53;5002449;28;20050;-68
2022/09/09 01:42:36;;;;;;;5.47;0.70;;;14.80;99.90;;;14.18;100.00;97586.53;5004092;28;20054;-68
2022/09/09 01:45:04;;;;;;;4.82;0.80;;;14.70;99.90;;;14.18;100.00;97590.91;4997191;28;20056;-68
2022/09/09 01:47:31;;;;;;;6.15;1.15;;;14.70;99.90;;;14.19;100.00;97590.00;5035251;28;20401;-68
2022/09/09 01:49:59;;;;;;;7.15;0.88;;;14.70;99.90;;;14.12;100.00;97593.91;5034341;28;20045;-68
2022/09/09 01:52:26;;;;;;;4.55;0.50;;;14.80;99.90;;;14.13;100.00;97588.56;5030954;28;20054;-68
2022/09/09 01:54:53;;;;;;;3.05;0.70;;;14.80;99.90;;;14.21;100.00;97595.97;4999440;28;20046;-69
2022/09/09 01:57:54;;;;;;;8.30;0.98;;;14.70;99.90;;;14.21;100.00;97591.59;5030809;28;20050;-68
2022/09/09 02:00:21;;;;;;;4.57;0.70;;;14.80;99.90;;;14.24;100.00;97593.19;5007141;28;20049;-68
2022/09/09 02:03:25;;;;;;;5.97;1.30;;;14.80;99.90;;;14.22;100.00;97585.44;5032588;28;20422;-68
2022/09/09 02:06:03;;;;;;;4.53;0.60;;;14.80;99.90;;;14.23;100.00;97594.97;5003290;28;20053;-68
2022/09/09 02:08:40;;;;;;;5.35;0.70;;;14.80;99.90;;;14.17;100.00;97584.88;5002318;28;20049;-68
2022/09/09 02:11:14;;;;;;;5.40;0.70;;;14.80;99.90;;;14.16;100.00;97585.81;5035007;28;20049;-68
2022/09/09 02:13:45;;;;;;;3.65;0.65;;;14.80;99.90;;;14.12;100.00;97583.47;5003277;28;20050;-68
2022/09/09 02:16:26;;;;;;;7.13;0.80;;;14.70;99.90;;;14.09;100.00;97581.84;5034545;28;20145;-68
2022/09/09 02:19:04;;;;;;;5.85;0.90;;;14.70;99.90;;;14.02;100.00;97575.28;5032800;28;20145;-68
2022/09/09 02:21:34;;;;;;;8.25;0.70;;;14.70;99.90;;;14.05;100.00;97580.34;5001342;28;20060;-68
2022/09/09 02:24:07;;;;;;;4.53;1.00;;;14.70;99.90;;;14.06;100.00;97582.03;5001887;28;20415;-69
2022/09/09 02:26:41;;;;;;;4.32;0.75;;;14.70;99.90;;;14.06;100.00;97583.78;5000624;28;20411;-68
2022/09/09 02:29:20;;;;;;;3.85;0.70;;;14.70;99.90;;;14.07;100.00;97585.47;5034465;28;20057;-68
2022/09/09 02:31:49;;;;;;;4.80;0.70;;;14.70;99.90;;;14.00;100.00;97587.56;5034698;28;20053;-68
2022/09/09 02:34:20;;;;;;;4.10;0.90;;;14.70;99.90;;;14.01;100.00;97584.06;5002237;28;20051;-68
2022/09/09 02:36:49;;;;;;;4.15;0.60;;;14.70;99.90;;;14.02;100.00;97585.72;5001341;28;20050;-69
2022/09/09 02:39:16;;;;;;;4.28;0.73;;;14.70;99.90;;;14.02;100.00;97588.34;5032951;28;20053;-68
2022/09/09 02:41:43;;;;;;;5.70;0.65;;;14.60;99.90;;;13.97;100.00;97579.94;5002305;28;20045;-68
2022/09/09 02:44:13;;;;;;;4.80;0.70;;;14.60;99.90;;;13.90;100.00;97579.44;5002266;28;20320;-68
2022/09/09 02:46:48;;;;;;;5.20;0.80;;;14.60;99.90;;;13.90;100.00;97578.59;5004328;28;20057;-68
2022/09/09 02:49:21;;;;;;;4.38;0.90;;;14.60;99.90;;;13.89;100.00;97587.34;5004738;28;20614;-68
2022/09/09 02:52:02;;;;;;;3.63;0.70;;;14.60;99.90;;;13.85;100.00;97583.25;5002662;28;20046;-68
2022/09/09 02:54:36;;;;;;;6.28;0.80;;;14.50;99.90;;;13.78;100.00;97580.97;4995889;28;20066;-68
2022/09/09 02:57:30;;;;;;;4.70;0.80;;;14.40;99.90;;;13.83;100.00;97577.25;5016489;28;20050;-68
2022/09/09 02:59:58;;;;;;;6.75;0.98;;;14.40;99.90;;;13.79;100.00;97581.78;5030393;28;20079;-68
2022/09/09 03:02:26;;;;;;;4.07;0.55;;;14.30;99.90;;;13.80;100.00;97578.28;4995943;28;20046;-68
2022/09/09 03:04:52;;;;;;;2.70;0.52;;;14.30;99.90;;;13.74;100.00;97574.22;5033190;28;20098;-68
2022/09/09 03:07:20;;;;;;;6.47;0.60;;;14.30;99.90;;;13.73;100.00;97583.00;4997815;28;20069;-68
2022/09/09 03:09:47;;;;;;;4.22;0.80;;;14.30;99.90;;;13.73;100.00;97579.50;5014140;28;20049;-68
2022/09/09 03:12:14;;;;;;;2.20;0.70;;;14.30;99.90;;;13.66;100.00;97584.25;5014265;28;20060;-69
2022/09/09 03:14:41;;;;;;;5.10;0.95;;;14.20;99.90;;;13.67;100.00;97585.09;5045776;28;20066;-69
2022/09/09 03:17:09;;;;;;;6.75;0.70;;;14.20;99.90;;;13.63;100.00;97589.63;5033214;28;20060;-68
2022/09/09 03:19:36;;;;;;;4.72;0.70;;;14.20;99.90;;;13.59;100.00;97590.72;4998227;28;21962;-68
2022/09/09 03:22:04;;;;;;;5.88;0.70;;;14.20;99.90;;;13.52;100.00;97599.78;4998349;28;20519;-68
2022/09/09 03:24:31;;;;;;;3.22;0.50;;;14.10;99.90;;;13.53;100.00;97602.31;5005776;28;20054;-69
2022/09/09 03:26:57;;;;;;;5.03;0.52;;;14.10;99.90;;;13.46;100.00;97598.38;5004374;28;20369;-68
2022/09/09 03:29:24;;;;;;;5.93;0.80;;;14.10;99.90;;;13.49;100.00;97603.41;5007744;28;20057;-69
2022/09/09 03:31:51;;;;;;;2.53;0.60;;;14.10;99.90;;;13.46;100.00;97613.19;5007773;28;20534;-68
2022/09/09 03:34:18;;;;;;;5.15;0.70;;;14.10;99.90;;;13.45;100.00;97612.31;5004331;28;20110;-69
2022/09/09 03:36:46;;;;;;;4.70;0.90;;;14.10;99.90;;;13.41;100.00;97612.56;5007041;28;20758;-68
2022/09/09 03:39:14;;;;;;;4.47;0.70;;;14.00;99.90;;;13.36;100.00;97618.88;5007553;28;20046;-68
2022/09/09 03:41:41;;;;;;;3.33;0.63;;;14.00;99.90;;;13.33;100.00;97618.19;5002863;28;20054;-68
2022/09/09 03:44:07;;;;;;;4.60;0.70;;;14.00;99.90;;;13.33;100.00;97618.19;5038317;28;20050;-69
2022/09/09 03:46:34;;;;;;;5.15;0.98;;;14.00;99.90;;;13.33;100.00;97621.63;5004893;28;20089;-71
2022/09/09 03:49:02;;;;;;;6.80;0.98;;;14.00;99.90;;;13.36;100.00;97623.22;5007050;28;20042;-68
2022/09/09 03:51:29;;;;;;;4.50;0.60;;;14.00;99.90;;;13.35;100.00;97622.41;5035803;28;20057;-68
2022/09/09 03:53:57;;;;;;;3.65;0.65;;;13.90;99.90;;;13.31;100.00;97622.66;5037848;28;20082;-68
2022/09/09 03:56:24;;;;;;;2.60;0.60;;;13.90;99.90;;;13.31;100.00;97625.25;5005417;28;20049;-68
2022/09/09 03:58:51;;;;;;;2.78;0.50;;;13.90;99.90;;;13.29;100.00;97627.09;5007010;28;20419;-68
2022/09/09 04:01:18;;;;;;;3.45;0.45;;;13.90;99.90;;;13.29;100.00;97627.94;5004013;28;20489;-68
2022/09/09 04:03:49;;;;;;;2.80;0.60;;;13.80;99.90;;;13.22;100.00;97630.91;4998521;28;20462;-68
2022/09/09 04:06:17;;;;;;;3.88;0.50;;;13.80;99.90;;;13.12;100.00;97641.81;4997277;28;20049;-68
2022/09/09 04:08:44;;;;;;;4.75;1.00;;;13.80;99.90;;;13.18;100.00;97638.91;5001050;28;20049;-68
2022/09/09 04:11:11;;;;;;;4.00;0.75;;;13.80;99.90;;;13.21;100.00;97650.09;5006911;28;20053;-68
2022/09/09 04:13:39;;;;;;;5.38;0.70;;;13.80;99.90;;;13.23;100.00;97651.69;5002562;28;21218;-68
2022/09/09 04:16:06;;;;;;;5.95;0.70;;;13.80;99.90;;;13.21;100.00;97658.75;5004844;28;20121;-68
2022/09/09 04:18:34;;;;;;;9.98;0.70;;;13.80;99.90;;;13.19;100.00;97647.56;5034962;28;20391;-68
2022/09/09 04:21:03;;;;;;;4.82;0.77;;;13.80;99.90;;;13.26;100.00;97655.91;5005434;28;20052;-69
2022/09/09 04:23:30;;;;;;;4.18;0.80;;;13.80;99.90;;;13.21;100.00;97665.75;5003840;28;20062;-69
2022/09/09 04:25:59;;;;;;;4.68;0.65;;;13.90;99.90;;;13.22;100.00;97665.63;5003785;28;20481;-69
2022/09/09 04:28:30;;;;;;;5.15;0.60;;;13.90;99.90;;;13.27;100.00;97670.63;5004141;28;20062;-69
2022/09/09 04:31:11;;;;;;;4.78;0.90;;;13.90;99.90;;;13.25;100.00;97673.31;5034227;28;20061;-69
2022/09/09 04:33:39;;;;;;;6.75;1.13;;;13.90;99.90;;;13.23;100.00;97679.50;5036031;28;20180;-69
2022/09/09 04:36:07;;;;;;;5.88;0.82;;;13.90;99.90;;;13.22;100.00;97681.28;5003915;28;20124;-69
2022/09/09 04:38:35;;;;;;;3.75;0.80;;;13.90;99.90;;;13.25;100.00;97675.94;5003567;28;20050;-69
2022/09/09 04:41:02;;;;;;;5.70;0.68;;;13.90;99.90;;;13.22;100.00;97680.44;5006107;28;21242;-69
2022/09/09 04:43:30;;;;;;;5.22;0.60;;;13.90;99.90;;;13.23;100.00;97682.97;5001180;28;20046;-69
2022/09/09 04:45:59;;;;;;;7.15;0.70;;;13.90;99.90;;;13.22;100.00;97677.84;5003566;28;20400;-69
2022/09/09 04:48:26;;;;;;;5.50;0.60;;;13.80;99.90;;;13.24;100.00;97683.81;5035080;28;20054;-69
2022/09/09 04:51:05;;;;;;;3.80;0.50;;;13.80;99.90;;;13.14;100.00;97689.50;5004340;28;20046;-69
2022/09/09 04:53:35;;;;;;;4.13;1.00;;;13.80;99.90;;;13.18;100.00;97691.03;5001058;28;20415;-70
2022/09/09 04:56:12;;;;;;;6.90;0.98;;;13.80;99.90;;;13.20;100.00;97696.16;5004658;28;20400;-69
2022/09/09 04:58:43;;;;;;;5.93;0.82;;;13.80;99.90;;;13.22;100.00;97694.31;5036976;28;20050;-69
2022/09/09 05:01:14;;;;;;;5.15;0.70;;;13.90;99.90;;;13.25;100.00;97696.78;5006137;28;20045;-69
2022/09/09 05:03:42;;;;;;;6.47;0.80;;;13.90;99.90;;;13.27;100.00;97705.34;5019846;28;21084;-69
2022/09/09 05:06:12;;;;;;;8.25;0.93;;;14.00;99.90;;;13.31;100.00;97706.91;5005947;28;20462;-69
2022/09/09 05:08:41;;;;;;;9.02;1.10;;;14.00;99.90;;;13.33;100.00;97720.69;5003989;28;20049;-69
2022/09/09 05:11:27;;;;;;;4.20;0.70;;;14.00;99.90;;;13.32;100.00;97721.63;5033403;28;20093;-68
2022/09/09 05:13:57;;;;;;;3.47;0.60;;;14.10;99.90;;;13.44;100.00;97722.75;5006518;28;20061;-68
2022/09/09 05:16:26;;;;;;;;;;;14.20;99.90;;;13.51;100.00;97725.91;5007128;28;20056;-68
2022/09/09 05:18:53;;;;;;;6.88;2.17;;;14.30;99.90;;;13.47;100.00;97725.19;5012201;28;20295;-68
2022/09/09 05:21:24;;;;;;;4.35;0.73;;;14.40;99.90;;;13.63;100.00;97735.69;5006821;28;20058;-68
2022/09/09 05:23:51;;;;;;;6.65;0.98;;;14.40;99.90;;;13.69;100.00;97730.16;5001946;28;20045;-68
2022/09/09 05:26:22;;;;;;;7.05;0.90;;;14.60;99.90;;;13.80;100.00;97740.03;5006025;28;20057;-68
2022/09/09 05:28:49;;;;;;;11.38;0.80;;;14.60;99.90;;;13.73;100.00;97747.34;5005272;28;20555;-68
2022/09/09 05:31:18;;;;;;;4.65;0.73;;;14.60;99.90;;;13.55;100.00;97745.69;5005227;28;20108;-68
2022/09/09 05:33:47;;;;;;;9.10;0.93;;;14.70;99.90;;;13.66;100.00;97743.38;5005479;28;20053;-68
2022/09/09 05:36:20;;;;;;;5.38;0.75;;;14.70;99.90;;;13.84;100.00;97749.34;5006379;28;20053;-68
2022/09/09 05:38:47;;;;;;;;;;;14.80;99.90;;;13.91;100.00;97750.75;5005393;28;20053;-69
2022/09/09 05:41:15;;;;;;;5.20;0.80;;;14.70;99.90;;;13.84;100.00;97764.16;5004340;28;20397;-68
2022/09/09 05:43:46;;;;;;;7.75;0.90;;;14.70;99.90;;;13.76;100.00;97768.03;5020533;28;20046;-68
2022/09/09 05:46:19;;;;;;;8.98;1.13;;;14.80;99.90;;;13.80;100.00;97768.72;5036562;28;20507;-68
2022/09/09 05:48:50;;;;;;;6.30;0.75;;;14.80;99.90;;;13.98;100.00;97770.38;5004244;28;20045;-68
2022/09/09 05:51:21;;;;;;;4.65;0.80;;;14.80;99.90;;;13.90;100.00;97780.34;5003824;28;20081;-68
2022/09/09 05:53:49;;;;;;;6.35;1.13;;;14.80;99.90;;;14.04;100.00;97787.44;5004106;28;20129;-68
2022/09/09 05:56:25;;;;;;;7.07;1.13;;;14.80;99.90;;;13.95;100.00;97795.75;5001950;28;20057;-69
2022/09/09 05:58:56;;;;;;;8.00;1.05;;;14.70;99.90;;;13.96;100.00;97795.69;5034424;28;20060;-68
2022/09/09 06:01:29;;;;;;;7.57;1.20;;;14.70;99.90;;;13.97;100.00;97797.38;5004229;28;20061;-70
2022/09/09 06:03:57;;;;;;;9.18;1.23;;;14.70;99.90;;;13.68;100.00;97792.81;5002896;28;20046;-69
2022/09/09 06:06:36;;;;;;;9.82;0.98;;;14.60;99.90;;;13.76;100.00;97793.28;5001424;28;20050;-69
2022/09/09 06:09:09;;;;;;;6.25;1.10;;;14.50;99.90;;;13.73;100.00;97794.28;5035011;28;20114;-69
2022/09/09 06:11:39;;;;;;;8.48;0.85;;;14.40;99.90;;;13.73;100.00;97791.69;5000866;28;20153;-69
2022/09/09 06:14:07;;;;;;;8.50;1.63;;;14.50;99.90;;;13.69;100.00;97781.47;5002164;28;20049;-68
2022/09/09 06:16:35;;;;;;;7.88;1.10;;;14.40;99.90;;;13.74;100.00;97789.91;5032501;28;20053;-69
2022/09/09 06:19:03;;;;;;;9.38;1.00;;;14.50;99.90;;;13.78;100.00;97789.66;5002979;28;20061;-68
2022/09/09 06:21:38;;;;;;;8.25;1.30;;;14.60;99.90;;;13.96;100.00;97797.47;5004240;28;20503;-69
2022/09/09 06:24:07;;;;;;;8.85;1.02;;;14.60;99.90;;;14.01;100.00;97792.84;4999856;28;20038;-69
2022/09/09 06:26:37;;;;;;;9.27;1.02;;;14.70;99.90;;;13.94;100.00;97796.69;5001877;28;20061;-68
2022/09/09 06:29:04;;;;;;;5.38;0.90;;;14.70;99.90;;;14.12;100.00;97808.78;5002287;28;20056;-68
2022/09/09 06:31:34;;;;;;;6.38;1.00;;;14.80;99.90;;;14.15;100.00;97810.38;5000013;28;20070;-68
2022/09/09 06:34:02;;;;;;;9.18;1.48;;;14.80;99.90;;;14.17;100.00;97809.38;5002512;28;20759;-68
2022/09/09 06:36:32;;;;;;;9.65;1.02;;;14.90;99.90;;;14.37;100.00;97816.13;5003233;28;20053;-68
2022/09/09 06:38:59;;;;;;;10.20;1.85;;;15.00;99.90;;;14.41;100.00;97820.28;4998287;28;20187;-68
2022/09/09 06:41:29;;;;;;;6.18;0.90;;;15.00;99.90;;;14.58;100.00;97826.38;5006355;28;20053;-68
2022/09/09 06:43:56;;;;;;;6.13;1.10;;;15.20;99.90;;;14.67;100.00;97831.09;5005113;28;20393;-68
2022/09/09 06:46:30;;;;;;;5.28;1.10;;;15.50;99.90;;;14.81;100.00;97832.94;5034654;28;20049;-68
2022/09/09 06:48:59;;;;;;;7.75;1.00;;;15.60;99.90;;;14.93;100.00;97827.00;5007115;28;20056;-68
2022/09/09 06:51:34;;;;;;;5.88;1.00;;;15.70;99.90;;;15.04;100.00;97823.81;5037486;28;20062;-68
2022/09/09 06:54:03;;;;;;;5.97;0.90;;;15.70;99.90;;;15.08;100.00;97824.47;5037271;28;20076;-68
2022/09/09 06:56:36;;;;;;;13.20;1.50;;;15.90;99.90;;;14.88;100.00;97823.00;5007379;28;20059;-67
2022/09/09 06:59:05;;;;;;;9.45;1.33;;;15.90;99.90;;;15.11;100.00;97814.66;5036045;28;20133;-68
2022/09/09 07:01:42;;;;;;;9.60;1.55;;;15.90;99.90;;;14.85;100.00;97810.94;5004826;28;20072;-68
2022/09/09 07:04:10;;;;;;;8.00;1.33;;;15.90;99.90;;;14.73;100.00;97804.59;5036309;28;20524;-67
2022/09/09 07:06:44;;;;;;;7.60;0.88;;;15.80;99.90;;;14.78;100.00;97805.22;5037846;28;20060;-68
2022/09/09 07:09:15;;;;;;;5.75;0.90;;;15.80;99.90;;;14.79;100.00;97804.28;5036868;28;20057;-68
2022/09/09 07:11:45;;;;;;;10.48;1.50;;;15.80;99.90;;;14.83;100.00;97807.56;5004452;28;20077;-68
2022/09/09 07:14:14;;;;;;;6.03;1.27;;;15.90;99.90;;;14.66;100.00;97807.66;5005050;28;20069;-67
2022/09/09 07:16:45;;;;;;;5.75;0.80;;;16.00;99.90;;;14.84;100.00;97804.00;5034811;28;20057;-68
2022/09/09 07:19:14;;;;;;;11.23;1.37;;;16.00;99.90;;;14.84;100.00;97810.06;5002852;28;20148;-68
2022/09/09 07:21:41;;;;;;;6.57;0.93;;;16.00;99.90;;;14.90;100.00;97802.84;5006318;28;20056;-68
2022/09/09 07:24:10;;;;;;;10.13;1.50;;;16.10;99.90;;;14.97;100.00;97798.94;5005732;28;20046;-67
2022/09/09 07:26:39;;;;;;;7.70;1.17;;;16.10;99.90;;;15.26;100.00;97794.66;5003198;28;20893;-68
2022/09/09 07:29:07;;;;;;;5.35;0.90;;;16.30;99.90;;;15.23;100.00;97790.41;5004380;28;20128;-68
2022/09/09 07:31:37;;;;;;;9.38;1.20;;;16.30;99.90;;;15.33;100.00;97782.91;5036840;28;20061;-68
2022/09/09 07:34:05;;;;;;;8.65;1.30;;;16.30;99.90;;;15.41;100.00;97775.44;5033445;28;20141;-68
2022/09/09 07:36:38;;;;;;;8.88;1.10;;;16.40;99.90;;;15.06;100.00;97765.25;5004978;28;20065;-68
2022/09/09 07:39:09;;;;;;;7.03;1.10;;;16.40;99.90;;;15.01;100.00;97762.09;5006617;28;20072;-68
2022/09/09 07:41:47;;;;;;;7.93;1.40;;;16.40;99.90;;;15.38;100.00;97762.53;5004890;28;20057;-68
2022/09/09 07:44:18;;;;;;;11.55;1.48;;;16.40;99.90;;;15.25;100.00;97767.66;5004646;28;20065;-68
2022/09/09 07:46:45;;;;;;;11.32;1.27;;;16.50;99.90;;;15.24;100.00;97758.13;5001291;28;20046;-68
2022/09/09 07:49:13;;;;;;;8.27;1.20;;;16.60;99.90;;;15.09;100.00;97750.34;5006680;28;20093;-68
2022/09/09 07:51:44;;;;;;;10.45;1.45;;;16.60;99.90;;;15.14;100.00;97727.38;5005945;28;20586;-68
2022/09/09 07:54:14;;;;;;;11.25;1.58;;;16.60;99.90;;;15.28;100.00;97727.44;5006117;28;20050;-67
2022/09/09 07:56:42;;;;;;;10.52;1.50;;;16.60;99.90;;;15.30;100.00;97720.31;5004388;28;20053;-68
2022/09/09 07:59:10;;;;;;;8.60;1.20;;;16.60;99.90;;;15.13;100.00;97723.91;5008448;28;20131;-68
2022/09/09 08:01:49;;;;;;;11.45;1.50;;;16.70;99.90;;;15.08;100.00;97712.06;5003838;28;20061;-68
2022/09/09 08:04:18;;;;;;;14.38;1.63;;;16.50;99.90;;;15.25;100.00;97712.72;5003105;28;20073;-68
2022/09/09 08:06:59;;;;;;;11.20;1.40;;;16.40;99.90;;;15.28;100.00;97698.66;5003648;28;20042;-68
2022/09/09 08:09:28;;;;;;;9.40;1.33;;;16.60;99.90;;;15.23;100.00;97692.84;5019750;28;20053;-67
2022/09/09 08:11:56;;;;;;;15.35;1.42;;;16.50;99.90;;;15.19;100.00;97686.97;4998253;28;20128;-68
2022/09/09 08:14:23;;;;;;;11.18;1.40;;;16.40;99.90;;;15.25;100.00;97686.56;5004933;28;20506;-68
2022/09/09 08:16:50;;;;;;;9.35;1.00;;;16.40;99.90;;;15.59;100.00;97681.09;5003526;28;20050;-68
2022/09/09 08:19:21;;;;;;;7.22;1.13;;;16.60;99.90;;;15.57;100.00;97667.25;5004861;28;20618;-68
2022/09/09 08:21:48;;;;;;;10.60;1.25;;;16.80;99.90;;;15.45;100.00;97647.94;4997068;28;20046;-68
2022/09/09 08:24:16;;;;;;;13.10;1.40;;;16.80;99.90;;;15.41;100.00;97639.41;4994652;28;20121;-68
2022/09/09 08:26:47;;;;;;;9.00;1.13;;;16.90;99.90;;;15.62;100.00;97625.94;5003727;28;20053;-67
2022/09/09 08:29:14;;;;;;;10.00;1.25;;;16.90;99.90;;;15.88;100.00;97614.72;5004429;28;20086;-68
2022/09/09 08:31:51;;;;;;;10.32;1.38;;;17.20;99.90;;;16.13;100.00;97581.75;5003833;28;20057;-68
2022/09/09 08:34:21;;;;;;;8.55;1.00;;;17.40;99.90;;;15.72;100.00;97574.75;5034620;28;20193;-68
2022/09/09 08:36:50;;;;;;;5.65;1.00;;;17.40;99.90;;;16.28;100.00;97570.28;5005317;28;20057;-68
2022/09/09 08:39:20;;;;;;;8.15;1.42;;;17.40;99.90;;;16.16;100.00;97544.03;5035590;28;20517;-68
2022/09/09 08:42:00;;;;;;;9.93;1.38;;;17.70;99.90;;;16.05;100.00;97537.72;5003327;28;20052;-68
2022/09/09 08:44:49;;;;;;;10.68;1.05;;;17.70;99.90;;;16.16;100.00;97533.56;5003129;28;20052;-68
2022/09/09 08:48:15;;;;;;;12.07;1.20;;;17.90;99.90;;;16.67;100.00;97524.00;5036183;28;20076;-68
2022/09/09 08:50:43;;;;;;;8.90;1.15;;;18.10;99.90;;;16.59;100.00;97499.25;5001190;28;20054;-68
2022/09/09 08:53:22;;;;;;;12.40;1.85;;;18.00;99.90;;;16.64;100.00;97491.91;5033938;28;20046;-68
2022/09/09 08:55:51;;;;;;;10.32;1.33;;;18.00;99.90;;;16.39;100.00;97479.63;5015229;28;20462;-68
2022/09/09 08:58:25;;;;;;;8.27;1.25;;;18.00;99.90;;;16.68;100.00;97475.88;5033729;28;20057;-68
2022/09/09 09:01:43;;;;;;;12.13;1.65;;;18.00;99.90;;;16.64;100.00;97444.75;5003206;28;20495;-68
2022/09/09 09:04:47;;;;;;;7.88;1.23;;;18.00;99.90;;;16.55;100.00;97434.91;5000885;28;20305;-68
2022/09/09 09:07:24;;;;;;;11.68;1.25;;;18.00;99.90;;;16.28;100.00;97427.97;5019696;28;20073;-68
2022/09/09 09:10:02;;;;;;;8.70;1.10;;;17.70;99.90;;;15.97;100.00;97424.81;5032525;28;20076;-68
2022/09/09 09:12:52;;;;;;;7.50;1.20;;;17.60;99.90;;;16.02;100.00;97437.59;5002183;28;20455;-68
2022/09/09 09:15:26;;;;;;;16.65;1.67;;;17.50;99.90;;;16.06;100.00;97424.19;5003345;28;20062;-68
2022/09/09 09:17:57;;;;;;;7.55;1.10;;;17.60;99.90;;;16.25;100.00;97420.34;5010736;28;20057;-68
2022/09/09 09:21:04;;;;;;;12.30;1.30;;;17.80;99.90;;;17.13;100.00;97415.94;5000268;28;20057;-68
2022/09/09 09:23:46;;;;;;;7.13;1.02;;;18.10;99.90;;;18.31;100.00;97401.09;4978067;28;20054;-68
2022/09/09 09:26:13;;;;;;;8.35;0.82;;;19.50;99.90;;;18.39;100.00;97376.88;4999912;28;20053;-68
2022/09/09 09:28:41;;;;;;;8.43;1.30;;;20.50;99.90;;;18.08;100.00;97357.38;4999629;28;20050;-68
2022/09/09 09:31:11;;;;;;;8.45;1.30;;;20.60;99.90;;;17.45;100.00;97370.78;5003928;28;20485;-68
2022/09/09 09:33:54;;;;;;;6.15;0.80;;;20.10;99.90;;;17.28;100.00;97335.28;5003771;28;20310;-68
2022/09/09 09:36:39;;;;;;;9.43;1.13;;;19.40;99.90;;;17.05;100.00;97346.63;5005161;28;20053;-68
2022/09/09 09:39:06;;;;;;;7.95;0.90;;;19.00;99.90;;;17.25;100.00;97346.00;5005585;28;20387;-68
2022/09/09 09:41:54;;;;;;;7.60;0.90;;;18.80;99.90;;;16.84;100.00;97364.75;5006363;28;20038;-68
2022/09/09 09:44:30;;;;;;;4.10;0.98;;;18.60;99.90;;;16.74;100.00;97359.31;5004389;28;20077;-68
2022/09/09 09:47:14;;;;;;;12.68;1.63;;;18.50;99.90;;;17.13;100.00;97365.28;5005647;28;20046;-68
2022/09/09 09:50:02;;;;;;;11.95;1.40;;;18.50;99.90;;;16.64;100.00;97348.59;5002679;28;20046;-68
2022/09/09 09:52:31;;;;;;;6.07;0.90;;;18.40;99.90;;;16.79;100.00;97379.94;5036263;28;20081;-68
2022/09/09 09:55:03;;;;;;;;;;;18.30;99.90;;;16.92;100.00;97372.88;5039013;28;20058;-68
2022/09/09 09:57:34;;;;;;;10.15;1.38;;;18.50;99.90;;;17.11;100.00;97362.75;5020759;28;19921;-68
2022/09/09 10:00:22;;;;;;;6.18;1.00;;;18.30;99.90;;;17.59;100.00;97358.44;5038064;28;20132;-68
2022/09/09 10:02:52;;;;;;;7.50;0.95;;;18.50;99.90;;;17.31;100.00;97368.31;5037982;28;20045;-68
2022/09/09 10:05:27;;;;;;;12.20;1.15;;;19.10;99.90;;;17.28;100.00;97368.56;5005923;28;20057;-68
2022/09/09 10:08:11;;;;;;;5.28;0.90;;;19.20;99.90;;;17.58;100.00;97372.50;5005289;28;20120;-68
2022/09/09 10:11:24;;;;;;;7.65;0.80;;;19.00;99.90;;;18.24;100.00;97357.84;5006466;28;20054;-68
2022/09/09 10:14:22;;;;;;;5.28;0.70;;;19.60;99.90;;;19.15;100.00;97332.31;5005522;28;20062;-68
2022/09/09 10:17:09;;;;;;;5.28;0.75;;;20.70;99.90;;;19.42;100.00;97298.47;5009321;28;20531;-68
2022/09/09 10:19:37;;;;;;;10.80;0.90;;;21.30;99.90;;;17.94;100.00;97301.50;5008818;28;20120;-68
2022/09/09 10:22:28;;;;;;;7.90;0.90;;;20.80;99.90;;;17.60;100.00;97300.56;5009168;28;20037;-68
2022/09/09 10:25:28;;;;;;;7.93;0.90;;;20.00;99.90;;;17.73;100.00;97321.47;5010342;28;20053;-68
2022/09/09 10:28:30;;;;;;;7.13;0.85;;;19.90;99.90;;;18.00;100.00;97326.47;5001601;28;20058;-67
2022/09/09 10:31:11;;;;;;;7.38;1.33;;;20.00;99.90;;;17.98;100.00;97323.94;5007844;28;20056;-68
2022/09/09 10:33:51;;;;;;;7.53;1.10;;;20.40;99.90;;;17.51;100.00;97317.84;5036149;28;20046;-67
2022/09/09 10:36:23;;;;;;;6.65;0.90;;;20.40;99.90;;;17.03;100.00;97333.63;5038468;28;20064;-67
2022/09/09 10:39:22;;;;;;;8.88;1.02;;;19.90;99.90;;;17.81;100.00;97345.38;5006275;28;20068;-69
2022/09/09 10:42:14;;;;;;;6.05;0.80;;;19.70;99.90;;;18.27;100.00;97346.28;5036786;28;20069;-70
2022/09/09 10:44:47;;;;;;;7.00;0.97;;;19.80;99.90;;;18.05;100.00;97345.31;5037705;28;20062;-69